Time;durP1;ratioP1;P1;durP2;ratioP2;P2;SDS_P1;SDS_P2;PMS_P1;PMS_P2;Temp;Humidity;BMP_temperature;BMP_pressure;BME280_temperature;BME280_humidity;BME280_pressure;Samples;Min_cycle;Max_cycle;Signal;HPM_P1;HPM_P2
2022/06/22 00:00:18;;;;;;;13.40;9.30;;;11.10;99.90;;;;;;4926681;29;20035;-74
2022/06/22 00:02:48;;;;;;;14.52;9.73;;;11.10;99.90;;;;;;4926150;29;20455;-74
2022/06/22 00:05:19;;;;;;;15.35;9.20;;;11.00;99.90;;;;;;4926419;29;20042;-74
2022/06/22 00:07:50;;;;;;;12.02;9.80;;;11.00;99.90;;;;;;4925853;29;20086;-74
2022/06/22 00:10:37;;;;;;;14.57;9.20;;;11.00;99.90;;;;;;4916770;29;20256;-75
2022/06/22 00:13:13;;;;;;;14.35;9.73;;;10.90;99.90;;;;;;4923999;29;20119;-75
2022/06/22 00:15:52;;;;;;;17.42;10.55;;;10.90;99.90;;;;;;4917806;29;20524;-74
2022/06/22 00:18:40;;;;;;;15.05;10.07;;;10.90;99.90;;;;;;4920567;29;20047;-74
2022/06/22 00:21:32;;;;;;;20.65;9.77;;;10.90;99.90;;;;;;4923613;29;20066;-74
2022/06/22 00:24:00;;;;;;;14.73;9.52;;;10.90;99.90;;;;;;4923238;29;20184;-74
2022/06/22 00:26:34;;;;;;;18.08;10.05;;;10.80;99.90;;;;;;4924466;29;20039;-74
2022/06/22 00:29:05;;;;;;;15.55;9.15;;;10.80;99.90;;;;;;4925446;29;20385;-75
2022/06/22 00:31:39;;;;;;;13.10;9.25;;;10.80;99.90;;;;;;4925260;29;20115;-74
2022/06/22 00:34:10;;;;;;;14.25;9.50;;;10.80;99.90;;;;;;4912278;29;20038;-74
2022/06/22 00:36:41;;;;;;;12.57;9.20;;;10.70;99.90;;;;;;4916873;29;20716;-74
2022/06/22 00:39:17;;;;;;;13.60;10.13;;;10.70;99.90;;;;;;4921966;29;20036;-75
2022/06/22 00:41:51;;;;;;;12.13;9.48;;;10.70;99.90;;;;;;4909140;29;20032;-74
2022/06/22 00:44:19;;;;;;;13.35;9.38;;;10.70;99.90;;;;;;4923312;29;20597;-74
2022/06/22 00:46:55;;;;;;;15.63;9.88;;;10.60;99.90;;;;;;4925597;29;20039;-74
2022/06/22 00:49:22;;;;;;;13.63;9.63;;;10.70;99.90;;;;;;4925432;29;20110;-74
2022/06/22 00:51:48;;;;;;;12.77;8.88;;;10.60;99.90;;;;;;4924717;29;20511;-74
2022/06/22 00:54:18;;;;;;;12.90;9.57;;;10.60;99.90;;;;;;4924275;29;20020;-74
2022/06/22 00:56:59;;;;;;;11.52;9.07;;;10.50;99.90;;;;;;4907486;29;20299;-74
2022/06/22 00:59:31;;;;;;;12.30;8.43;;;10.50;99.90;;;;;;4912550;29;20136;-74
2022/06/22 01:02:02;;;;;;;9.85;8.88;;;10.30;99.90;;;;;;4925098;29;20120;-75
2022/06/22 01:04:45;;;;;;;10.88;8.15;;;10.20;99.90;;;;;;4925459;29;20461;-74
2022/06/22 01:07:49;;;;;;;10.13;7.60;;;10.20;99.90;;;;;;4924823;29;20036;-74
2022/06/22 01:11:02;;;;;;;14.43;9.05;;;10.20;99.90;;;;;;4856539;29;20112;-74
2022/06/22 01:13:39;;;;;;;11.52;9.85;;;10.00;99.90;;;;;;4887244;29;20036;-74
2022/06/22 01:16:10;;;;;;;14.32;9.45;;;10.00;99.90;;;;;;4915983;29;20092;-74
2022/06/22 01:18:45;;;;;;;13.18;9.25;;;9.90;99.90;;;;;;4924717;29;20024;-74
2022/06/22 01:21:17;;;;;;;10.35;8.75;;;9.80;99.90;;;;;;4923312;29;20027;-74
2022/06/22 01:24:04;;;;;;;11.52;9.43;;;9.80;99.90;;;;;;4918930;29;20135;-74
2022/06/22 01:26:45;;;;;;;16.40;11.02;;;9.70;99.90;;;;;;4916495;29;20119;-74
2022/06/22 01:29:15;;;;;;;18.77;10.20;;;9.70;99.90;;;;;;4922367;29;20253;-74
2022/06/22 01:31:59;;;;;;;15.52;10.60;;;9.70;99.90;;;;;;4910754;29;20042;-74
2022/06/22 01:34:28;;;;;;;14.30;10.18;;;9.60;99.90;;;;;;4914931;29;20023;-74
2022/06/22 01:37:01;;;;;;;15.38;11.60;;;9.60;99.90;;;;;;4926510;29;20035;-74
2022/06/22 01:39:27;;;;;;;21.23;11.18;;;9.60;99.90;;;;;;4929350;29;20535;-74
2022/06/22 01:41:58;;;;;;;14.38;10.90;;;9.50;99.90;;;;;;4929002;29;20043;-74
2022/06/22 01:44:50;;;;;;;16.25;11.02;;;9.60;99.90;;;;;;4910806;29;20059;-73
2022/06/22 01:47:22;;;;;;;15.30;11.13;;;9.60;99.90;;;;;;4918517;29;20038;-74
2022/06/22 01:50:15;;;;;;;17.20;10.88;;;9.50;99.90;;;;;;4906950;29;20534;-73
2022/06/22 01:52:54;;;;;;;17.05;11.80;;;9.40;99.90;;;;;;4912634;29;20090;-74
2022/06/22 01:55:35;;;;;;;19.02;12.02;;;9.40;99.90;;;;;;4923351;29;20122;-73
2022/06/22 01:58:00;;;;;;;20.58;13.77;;;9.40;99.90;;;;;;4913335;29;20047;-74
2022/06/22 02:00:26;;;;;;;20.50;13.57;;;9.40;99.90;;;;;;4905081;29;20043;-74
2022/06/22 02:03:04;;;;;;;19.60;13.55;;;9.50;99.90;;;;;;4905310;29;20040;-74
2022/06/22 02:05:58;;;;;;;20.60;13.82;;;9.50;99.90;;;;;;4916979;29;20050;-74
2022/06/22 02:08:30;;;;;;;19.23;13.50;;;9.50;99.90;;;;;;4923254;29;20027;-74
2022/06/22 02:11:04;;;;;;;23.48;14.52;;;9.50;99.90;;;;;;4917958;29;20039;-74
2022/06/22 02:13:32;;;;;;;23.77;14.07;;;9.60;99.90;;;;;;4916158;29;20036;-74
2022/06/22 02:16:10;;;;;;;22.08;13.20;;;9.60;99.90;;;;;;4918105;29;20115;-74
2022/06/22 02:18:49;;;;;;;22.30;13.15;;;9.70;99.90;;;;;;4922421;29;20126;-74
2022/06/22 02:21:41;;;;;;;17.40;12.73;;;9.70;99.90;;;;;;4904642;29;20108;-74
2022/06/22 02:24:38;;;;;;;15.65;11.43;;;9.60;99.90;;;;;;4921093;29;20042;-74
2022/06/22 02:27:13;;;;;;;18.58;11.27;;;9.60;99.90;;;;;;4916592;29;20102;-74
2022/06/22 02:29:46;;;;;;;15.05;11.45;;;9.50;99.90;;;;;;4920506;29;20539;-74
2022/06/22 02:32:17;;;;;;;14.57;11.20;;;9.50;99.90;;;;;;4904403;29;20040;-74
2022/06/22 02:34:47;;;;;;;16.58;11.93;;;9.40;99.90;;;;;;4909319;29;20020;-73
2022/06/22 02:37:14;;;;;;;17.80;11.13;;;9.30;99.90;;;;;;4908107;29;20056;-74
2022/06/22 02:39:47;;;;;;;16.23;11.32;;;9.30;99.90;;;;;;4921872;29;20074;-73
2022/06/22 02:44:58;;;;;;;16.35;12.20;;;9.20;99.90;;;;;;4922879;29;20901;-73
2022/06/22 02:47:29;;;;;;;17.42;11.43;;;9.10;99.90;;;;;;4920691;29;20036;-74
2022/06/22 02:50:22;;;;;;;21.02;12.90;;;9.10;99.90;;;;;;4912723;29;20290;-73
2022/06/22 02:52:57;;;;;;;17.23;11.18;;;9.10;99.90;;;;;;4914723;29;20051;-74
2022/06/22 02:55:27;;;;;;;15.02;10.38;;;9.00;99.90;;;;;;4914036;29;20047;-73
2022/06/22 02:57:52;;;;;;;19.13;10.43;;;8.90;99.90;;;;;;4922554;29;20512;-74
2022/06/22 03:00:21;;;;;;;13.57;10.05;;;8.90;99.90;;;;;;4923470;29;20038;-74
2022/06/22 03:02:50;;;;;;;17.55;10.80;;;8.80;99.90;;;;;;4920472;29;20199;-74
2022/06/22 03:05:18;;;;;;;17.58;11.45;;;8.70;99.90;;;;;;4923026;29;20040;-73
2022/06/22 03:07:49;;;;;;;17.52;12.60;;;8.70;99.90;;;;;;4924884;29;20031;-74
2022/06/22 03:10:28;;;;;;;19.95;12.45;;;8.70;99.90;;;;;;4921992;29;20036;-74
2022/06/22 03:12:56;;;;;;;22.00;13.40;;;8.70;99.90;;;;;;4910328;29;20035;-73
2022/06/22 03:15:25;;;;;;;20.67;13.02;;;8.60;99.90;;;;;;4927241;29;20124;-74
2022/06/22 03:17:51;;;;;;;22.25;14.38;;;8.60;99.90;;;;;;4928214;29;20131;-74
2022/06/22 03:20:24;;;;;;;23.85;14.48;;;8.60;99.90;;;;;;4926510;29;20110;-74
2022/06/22 03:22:54;;;;;;;21.33;14.13;;;8.60;99.90;;;;;;4927365;29;20064;-73
2022/06/22 03:25:23;;;;;;;25.30;15.45;;;8.60;99.90;;;;;;4921926;29;20063;-73
2022/06/22 03:27:53;;;;;;;21.73;13.75;;;8.60;99.90;;;;;;4920919;29;20122;-74
2022/06/22 03:30:33;;;;;;;25.17;14.57;;;8.60;99.90;;;;;;4926574;29;20424;-74
2022/06/22 03:33:01;;;;;;;21.42;13.75;;;8.60;99.90;;;;;;4908673;29;20138;-73
2022/06/22 03:35:30;;;;;;;26.60;13.73;;;8.60;99.90;;;;;;4919600;29;20032;-73
2022/06/22 03:38:02;;;;;;;28.52;15.30;;;8.70;99.90;;;;;;4908776;29;20044;-73
2022/06/22 03:40:34;;;;;;;26.75;14.98;;;8.80;99.90;;;;;;4921264;29;20035;-73
2022/06/22 03:43:08;;;;;;;26.55;14.75;;;8.80;99.90;;;;;;4926831;29;20055;-73
2022/06/22 03:45:39;;;;;;;22.88;14.27;;;8.80;99.90;;;;;;4914695;29;20039;-74
2022/06/22 03:48:12;;;;;;;27.02;15.25;;;8.90;99.90;;;;;;4927727;29;20028;-74
2022/06/22 03:51:10;;;;;;;24.30;14.25;;;9.00;99.90;;;;;;4923828;29;20023;-73
2022/06/22 03:54:01;;;;;;;21.50;13.60;;;9.00;99.90;;;;;;4919131;29;20040;-73
2022/06/22 03:56:31;;;;;;;21.35;13.25;;;9.10;99.90;;;;;;4925704;29;20035;-74
2022/06/22 03:58:59;;;;;;;19.60;13.10;;;9.20;99.90;;;;;;4926510;29;20043;-73
2022/06/22 04:01:25;;;;;;;24.77;13.85;;;9.20;99.90;;;;;;4920236;29;20701;-73
2022/06/22 04:03:52;;;;;;;19.63;14.18;;;9.20;99.90;;;;;;4908149;29;20055;-74
2022/06/22 04:06:43;;;;;;;21.60;13.30;;;9.20;99.90;;;;;;4918521;29;20042;-74
2022/06/22 04:09:19;;;;;;;19.42;13.68;;;9.10;99.90;;;;;;4923871;29;20028;-73
2022/06/22 04:11:50;;;;;;;20.42;13.85;;;9.20;99.90;;;;;;4927357;29;20043;-73
2022/06/22 04:14:26;;;;;;;25.00;13.07;;;9.20;99.90;;;;;;4920572;29;20662;-73
2022/06/22 04:17:01;;;;;;;24.42;14.30;;;9.10;99.90;;;;;;4908947;29;20472;-73
2022/06/22 04:19:41;;;;;;;21.33;13.55;;;9.10;99.90;;;;;;4911291;29;20759;-73
2022/06/22 04:22:13;;;;;;;27.80;16.77;;;9.10;99.90;;;;;;4912484;29;20047;-73
2022/06/22 04:24:49;;;;;;;26.75;16.52;;;9.20;99.90;;;;;;4919798;29;20035;-74
2022/06/22 04:27:37;;;;;;;24.45;15.00;;;9.30;99.90;;;;;;4925890;29;20023;-73
2022/06/22 04:30:14;;;;;;;22.73;15.90;;;9.30;99.90;;;;;;4924593;29;20035;-74
2022/06/22 04:32:49;;;;;;;21.95;14.07;;;9.40;99.90;;;;;;4908121;29;20036;-73
2022/06/22 04:35:27;;;;;;;26.75;15.88;;;9.40;99.90;;;;;;4911113;29;20043;-73
2022/06/22 04:37:57;;;;;;;21.67;15.40;;;9.50;99.90;;;;;;4926494;29;20080;-73
2022/06/22 04:40:52;;;;;;;22.83;15.03;;;9.50;99.90;;;;;;4924229;29;20518;-73
2022/06/22 04:43:18;;;;;;;27.85;15.00;;;9.50;99.90;;;;;;4908645;29;20044;-73
2022/06/22 04:45:46;;;;;;;22.83;14.45;;;9.60;99.90;;;;;;4924098;29;20242;-74
2022/06/22 04:48:22;;;;;;;22.75;13.95;;;9.60;99.90;;;;;;4925905;29;20040;-73
2022/06/22 04:50:51;;;;;;;20.15;15.30;;;9.60;99.90;;;;;;4921946;29;20024;-74
2022/06/22 04:53:36;;;;;;;22.73;14.07;;;9.70;99.90;;;;;;4908347;29;20047;-73
2022/06/22 04:56:06;;;;;;;20.08;14.40;;;9.70;99.90;;;;;;4932733;28;20131;-73
2022/06/22 04:58:53;;;;;;;20.88;13.65;;;9.80;99.90;;;;;;4925335;29;20075;-74
2022/06/22 05:01:33;;;;;;;20.08;13.15;;;9.80;99.90;;;;;;4919864;29;20047;-73
2022/06/22 05:04:04;;;;;;;23.00;14.23;;;9.80;99.90;;;;;;4922426;29;20927;-74
2022/06/22 05:06:46;;;;;;;18.40;13.95;;;9.80;99.90;;;;;;4919689;29;20034;-73
2022/06/22 05:09:40;;;;;;;18.20;12.57;;;9.90;99.90;;;;;;4922365;29;20440;-74
2022/06/22 05:12:13;;;;;;;20.77;12.93;;;9.80;99.90;;;;;;4925174;29;20075;-74
2022/06/22 05:14:39;;;;;;;19.50;12.23;;;9.90;99.90;;;;;;4917742;29;20040;-74
2022/06/22 05:17:24;;;;;;;18.33;11.70;;;10.00;99.90;;;;;;4925437;29;20048;-73
2022/06/22 05:20:15;;;;;;;19.70;12.57;;;10.00;99.90;;;;;;4921215;29;20035;-73
2022/06/22 05:22:41;;;;;;;16.80;12.63;;;10.10;99.90;;;;;;4913169;29;20507;-73
2022/06/22 05:25:10;;;;;;;18.10;11.13;;;10.10;99.90;;;;;;4922264;29;20066;-73
2022/06/22 05:28:15;;;;;;;19.17;12.00;;;10.10;99.90;;;;;;4919009;29;20058;-74
2022/06/22 05:30:52;;;;;;;19.15;11.10;;;10.10;99.90;;;;;;4902448;29;20126;-73
2022/06/22 05:33:22;;;;;;;17.98;11.57;;;10.20;99.90;;;;;;4925973;29;20035;-74
2022/06/22 05:35:55;;;;;;;23.58;11.82;;;10.30;99.90;;;;;;4926112;29;20028;-73
2022/06/22 05:38:22;;;;;;;17.35;11.20;;;10.30;99.90;;;;;;4922781;29;20027;-74
2022/06/22 05:40:48;;;;;;;16.23;11.38;;;10.40;99.90;;;;;;4926546;29;20555;-74
2022/06/22 05:43:14;;;;;;;19.23;11.85;;;10.50;99.90;;;;;;4922576;29;20547;-74
2022/06/22 05:45:46;;;;;;;16.52;11.20;;;10.50;99.90;;;;;;4924219;29;20024;-74
2022/06/22 05:48:21;;;;;;;18.08;11.35;;;10.60;99.90;;;;;;4922692;29;20036;-74
2022/06/22 05:50:53;;;;;;;20.10;12.45;;;10.70;99.90;;;;;;4924691;29;20036;-74
2022/06/22 05:53:38;;;;;;;16.17;11.48;;;10.90;99.90;;;;;;4925129;29;20032;-74
2022/06/22 05:56:13;;;;;;;17.25;11.02;;;10.90;99.90;;;;;;4918655;29;20032;-74
2022/06/22 05:58:54;;;;;;;15.00;11.10;;;11.00;99.90;;;;;;4910083;29;20279;-74
2022/06/22 06:01:38;;;;;;;15.45;10.73;;;11.20;99.90;;;;;;4921840;29;20058;-74
2022/06/22 06:04:34;;;;;;;15.85;11.60;;;11.30;99.90;;;;;;4911701;29;20111;-73
2022/06/22 06:07:12;;;;;;;15.85;10.88;;;11.40;99.90;;;;;;4921111;29;20031;-73
2022/06/22 06:09:38;;;;;;;17.42;10.63;;;11.50;99.90;;;;;;4916503;29;20032;-74
2022/06/22 06:12:07;;;;;;;19.40;11.63;;;11.60;99.90;;;;;;4909740;29;20032;-74
2022/06/22 06:14:37;;;;;;;16.38;10.63;;;11.70;99.90;;;;;;4909103;29;20059;-74
2022/06/22 06:17:11;;;;;;;14.60;10.38;;;11.90;99.90;;;;;;4920898;29;20126;-74
2022/06/22 06:19:41;;;;;;;17.73;11.73;;;12.10;99.90;;;;;;4923234;29;20067;-74
2022/06/22 06:22:08;;;;;;;17.15;10.63;;;12.30;99.90;;;;;;4925201;29;20110;-73
2022/06/22 06:27:34;;;;;;;21.77;12.18;;;12.50;99.90;;;;;;4916851;29;20055;-74
2022/06/22 06:27:38;;;;;;;20.77;10.40;;;12.80;99.90;;;;;;4906167;29;20039;-74
2022/06/22 06:30:07;;;;;;;21.52;13.73;;;13.00;99.90;;;;;;4916353;29;20590;-74
2022/06/22 06:32:47;;;;;;;15.82;10.07;;;13.20;99.90;;;;;;4918758;29;20094;-74
2022/06/22 06:35:26;;;;;;;18.05;13.48;;;13.30;99.90;;;;;;4914223;29;20032;-74
2022/06/22 06:37:56;;;;;;;16.77;10.40;;;13.50;99.90;;;;;;4918705;29;20047;-74
2022/06/22 06:40:33;;;;;;;19.33;9.77;;;13.60;99.90;;;;;;4925012;29;20432;-74
2022/06/22 06:43:17;;;;;;;18.23;10.82;;;13.80;99.90;;;;;;4924057;29;20541;-74
2022/06/22 06:45:43;;;;;;;17.92;11.05;;;14.00;99.90;;;;;;4917191;29;20039;-75
2022/06/22 06:48:16;;;;;;;14.98;9.50;;;14.30;99.90;;;;;;4924791;29;20056;-76
2022/06/22 06:50:49;;;;;;;13.48;9.90;;;14.40;99.90;;;;;;4913351;29;20168;-76
2022/06/22 06:53:46;;;;;;;23.80;13.30;;;14.60;99.90;;;;;;4915838;29;20035;-75
2022/06/22 06:56:27;;;;;;;27.85;17.60;;;14.70;99.90;;;;;;4920322;29;20115;-75
2022/06/22 06:58:56;;;;;;;12.95;7.30;;;14.70;99.90;;;;;;4924189;29;20051;-75
2022/06/22 07:01:25;;;;;;;11.57;7.30;;;14.80;99.90;;;;;;4920702;29;20973;-75
2022/06/22 07:04:02;;;;;;;12.10;7.68;;;15.00;99.90;;;;;;4923316;29;20031;-75
2022/06/22 07:06:29;;;;;;;10.70;6.13;;;15.10;99.90;;;;;;4919464;29;20503;-76
2022/06/22 07:09:16;;;;;;;13.45;7.40;;;15.20;99.90;;;;;;4918410;29;20032;-75
2022/06/22 07:11:48;;;;;;;7.40;5.15;;;15.40;99.90;;;;;;4924736;29;20062;-76
2022/06/22 07:14:28;;;;;;;7.32;5.97;;;15.60;99.90;;;;;;4924734;29;20040;-75
2022/06/22 07:16:59;;;;;;;8.07;6.03;;;15.70;99.90;;;;;;4916670;29;20055;-76
2022/06/22 07:19:42;;;;;;;10.80;6.00;;;15.90;99.90;;;;;;4921503;29;20032;-75
2022/06/22 07:22:18;;;;;;;8.57;5.43;;;16.20;99.90;;;;;;4918283;29;20036;-75
2022/06/22 07:25:00;;;;;;;11.07;5.38;;;16.70;99.90;;;;;;4913640;29;20039;-75
2022/06/22 07:27:46;;;;;;;9.90;5.35;;;16.80;99.90;;;;;;4914784;29;20067;-75
2022/06/22 07:30:34;;;;;;;8.15;4.07;;;17.00;99.90;;;;;;4914774;29;20032;-76
2022/06/22 07:33:10;;;;;;;7.18;3.88;;;18.60;99.90;;;;;;4918818;29;20515;-73
2022/06/22 07:35:59;;;;;;;4.60;2.83;;;22.50;99.90;;;;;;4916369;29;20040;-73
2022/06/22 07:38:46;;;;;;;7.18;2.90;;;27.60;70.80;;;;;;4926027;29;20035;-74
2022/06/22 07:41:19;;;;;;;5.72;2.70;;;30.90;49.70;;;;;;4925792;29;20139;-73
2022/06/22 07:43:50;;;;;;;7.68;2.25;;;33.40;41.30;;;;;;4918000;29;20036;-74
2022/06/22 07:46:41;;;;;;;4.50;1.73;;;34.30;38.20;;;;;;4917309;29;20028;-74
2022/06/22 07:49:16;;;;;;;4.43;1.63;;;35.50;36.70;;;;;;4911138;29;20520;-76
2022/06/22 07:51:50;;;;;;;3.63;1.48;;;37.40;34.70;;;;;;4905318;29;21578;-73
2022/06/22 07:54:40;;;;;;;6.85;1.80;;;38.20;30.70;;;;;;4907161;29;20078;-75
2022/06/22 07:57:31;;;;;;;5.00;1.73;;;37.60;31.50;;;;;;4913856;29;20087;-76
2022/06/22 08:00:28;;;;;;;2.60;1.95;;;38.10;31.30;;;;;;4908145;29;20035;-76
2022/06/22 08:03:18;;;;;;;2.42;1.40;;;38.70;29.90;;;;;;4908152;29;20436;-76
2022/06/22 08:05:48;;;;;;;2.78;1.55;;;39.10;28.80;;;;;;4901290;29;20622;-73
2022/06/22 08:08:20;;;;;;;2.42;1.38;;;40.20;28.90;;;;;;4928520;28;20100;-76
2022/06/22 08:11:02;;;;;;;3.65;1.50;;;40.50;28.10;;;;;;4914234;29;20875;-75
2022/06/22 08:13:50;;;;;;;2.83;1.00;;;41.40;27.10;;;;;;4923617;29;20495;-74
2022/06/22 08:16:41;;;;;;;4.32;1.55;;;41.30;26.70;;;;;;4920741;29;20055;-75
2022/06/22 08:19:07;;;;;;;4.13;1.38;;;40.80;28.00;;;;;;4920120;29;20047;-75
2022/06/22 08:21:38;;;;;;;2.30;1.50;;;41.50;26.40;;;;;;4915191;29;20087;-74
2022/06/22 08:24:09;;;;;;;2.95;1.33;;;41.80;26.90;;;;;;4921057;29;20039;-75
2022/06/22 08:26:35;;;;;;;2.85;1.00;;;41.30;25.70;;;;;;4921693;29;20268;-73
2022/06/22 08:29:01;;;;;;;3.65;1.20;;;41.30;27.30;;;;;;4922644;29;20545;-73
2022/06/22 08:31:33;;;;;;;2.38;0.90;;;40.30;27.60;;;;;;4924547;29;20047;-73
2022/06/22 08:34:00;;;;;;;2.08;0.73;;;40.90;27.00;;;;;;4923720;29;20031;-74
2022/06/22 08:36:50;;;;;;;0.90;0.88;;;40.50;27.30;;;;;;4916339;29;20044;-74
2022/06/22 08:39:43;;;;;;;2.78;0.75;;;41.50;25.30;;;;;;4926520;29;20143;-75
2022/06/22 08:42:44;;;;;;;4.00;0.95;;;41.50;25.80;;;;;;4918326;29;20028;-72
2022/06/22 08:45:13;;;;;;;1.65;0.68;;;41.70;25.80;;;;;;4928112;29;20035;-73
2022/06/22 08:47:58;;;;;;;1.27;0.82;;;42.00;25.90;;;;;;4933126;29;20615;-73
2022/06/22 08:50:45;;;;;;;1.70;0.57;;;41.50;25.30;;;;;;4891035;29;20563;-72
2022/06/22 08:53:29;;;;;;;1.05;0.80;;;41.30;26.40;;;;;;4920263;29;20038;-75
2022/06/22 08:56:13;;;;;;;1.67;0.50;;;41.30;25.10;;;;;;4910909;29;20182;-74
2022/06/22 08:58:48;;;;;;;1.67;0.40;;;40.70;25.80;;;;;;4914343;29;20066;-75
2022/06/22 09:01:14;;;;;;;1.48;0.47;;;40.90;26.10;;;;;;4912067;29;20416;-75
2022/06/22 09:04:04;;;;;;;1.15;0.60;;;39.90;23.20;;;;;;4910866;29;20038;-74
2022/06/22 09:06:44;;;;;;;0.77;0.40;;;39.40;24.30;;;;;;4911712;29;20288;-75
2022/06/22 09:09:41;;;;;;;1.13;0.40;;;39.40;25.70;;;;;;4921378;29;20048;-75
2022/06/22 09:12:19;;;;;;;1.40;0.60;;;39.20;25.50;;;;;;4923927;29;20035;-75
2022/06/22 09:15:02;;;;;;;0.85;0.52;;;39.20;23.80;;;;;;4919323;29;20071;-75
2022/06/22 09:17:46;;;;;;;2.55;0.25;;;39.60;24.30;;;;;;4917191;29;20083;-74
2022/06/22 09:20:43;;;;;;;1.35;0.73;;;39.00;27.50;;;;;;4914558;29;20039;-74
2022/06/22 09:23:38;;;;;;;1.85;0.80;;;38.80;25.80;;;;;;4920950;29;20055;-74
2022/06/22 09:26:34;;;;;;;1.38;0.50;;;39.10;25.30;;;;;;4904798;29;20070;-75
2022/06/22 09:29:08;;;;;;;2.80;0.88;;;39.00;26.40;;;;;;4921859;29;20067;-76
2022/06/22 09:32:11;;;;;;;0.90;0.50;;;38.90;27.20;;;;;;4926047;29;20042;-75
2022/06/22 09:35:17;;;;;;;1.00;0.70;;;39.20;26.70;;;;;;4924223;29;20029;-75
2022/06/22 09:37:45;;;;;;;2.72;0.80;;;39.00;29.00;;;;;;4918756;29;20044;-74
2022/06/22 09:40:29;;;;;;;1.48;0.95;;;38.30;27.50;;;;;;4935073;29;20066;-74
2022/06/22 09:43:27;;;;;;;1.67;0.70;;;37.80;26.50;;;;;;4917655;29;20028;-75
2022/06/22 09:46:23;;;;;;;2.00;0.82;;;37.60;28.40;;;;;;4916426;29;20114;-75
2022/06/22 09:49:04;;;;;;;1.48;0.85;;;37.50;25.30;;;;;;4914030;29;20031;-76
2022/06/22 09:51:56;;;;;;;1.58;0.82;;;37.40;24.20;;;;;;4920237;29;20031;-76
2022/06/22 09:57:46;;;;;;;1.77;0.50;;;36.30;26.30;;;;;;4915239;29;20054;-75
2022/06/22 10:00:18;;;;;;;1.00;0.60;;;36.50;26.30;;;;;;4916053;29;20032;-76
2022/06/22 10:03:03;;;;;;;2.10;0.80;;;36.60;27.60;;;;;;4918777;29;20048;-75
2022/06/22 10:05:49;;;;;;;0.82;0.73;;;36.50;27.30;;;;;;4922888;29;20547;-74
2022/06/22 10:08:23;;;;;;;1.55;0.68;;;36.20;24.30;;;;;;4906256;29;20032;-75
2022/06/22 10:11:01;;;;;;;1.98;0.70;;;36.00;23.90;;;;;;4915472;29;20043;-73
2022/06/22 10:13:48;;;;;;;0.60;0.50;;;35.90;29.30;;;;;;4923901;29;20051;-74
2022/06/22 10:16:35;;;;;;;1.52;0.63;;;36.10;27.70;;;;;;4921642;29;20059;-75
2022/06/22 10:19:20;;;;;;;1.67;0.95;;;35.80;27.20;;;;;;4925038;29;20106;-75
2022/06/22 10:21:51;;;;;;;0.90;0.80;;;35.70;31.00;;;;;;4920945;29;20118;-75
2022/06/22 10:24:41;;;;;;;1.42;0.45;;;35.80;26.20;;;;;;4921216;29;20031;-75
2022/06/22 10:27:16;;;;;;;1.10;0.80;;;35.90;25.80;;;;;;4929007;29;20031;-75
2022/06/22 10:30:11;;;;;;;0.85;0.50;;;35.70;25.90;;;;;;4927237;29;20277;-76
2022/06/22 10:32:49;;;;;;;1.08;0.60;;;35.20;28.30;;;;;;4927956;29;20094;-75
2022/06/22 10:35:24;;;;;;;1.33;0.47;;;35.20;24.40;;;;;;4921162;29;20031;-75
2022/06/22 10:38:11;;;;;;;1.25;0.38;;;34.90;29.80;;;;;;4927337;29;20052;-75
2022/06/22 10:46:51;;;;;;;2.45;0.75;;;34.70;27.20;;;;;;4924518;29;20047;-75
2022/06/22 10:49:46;;;;;;;2.45;0.70;;;34.90;30.40;;;;;;4921205;29;20122;-74
2022/06/22 10:52:31;;;;;;;1.20;0.50;;;34.30;25.80;;;;;;4902156;29;20050;-74
2022/06/22 10:55:20;;;;;;;0.80;0.60;;;33.90;27.30;;;;;;4921289;29;20863;-74
2022/06/22 10:57:58;;;;;;;1.30;0.80;;;34.00;27.60;;;;;;4923808;29;20110;-74
2022/06/22 11:01:01;;;;;;;1.33;0.60;;;33.30;27.50;;;;;;4922847;29;20031;-74
2022/06/22 11:04:06;;;;;;;0.68;0.50;;;33.70;28.10;;;;;;4923746;29;20075;-73
2022/06/22 11:07:13;;;;;;;1.05;0.60;;;33.90;32.60;;;;;;4915378;29;20036;-74
2022/06/22 11:09:48;;;;;;;1.85;0.60;;;33.70;29.00;;;;;;4887279;29;20048;-75
2022/06/22 11:12:35;;;;;;;1.52;0.70;;;33.80;29.00;;;;;;4913840;29;20039;-74
2022/06/22 11:15:07;;;;;;;1.27;0.50;;;33.80;28.00;;;;;;4925050;29;20066;-74
2022/06/22 11:17:51;;;;;;;1.17;0.57;;;33.90;28.90;;;;;;4924090;29;20451;-74
2022/06/22 11:20:39;;;;;;;1.05;0.60;;;33.40;27.50;;;;;;4924012;29;20069;-74
2022/06/22 11:23:42;;;;;;;2.22;0.88;;;32.60;29.30;;;;;;4917200;29;20036;-74
2022/06/22 11:32:48;;;;;;;3.17;0.73;;;32.30;30.70;;;;;;4921090;29;20051;-74
2022/06/22 11:35:31;;;;;;;1.27;0.60;;;31.70;31.80;;;;;;4917507;29;20023;-72
2022/06/22 11:38:24;;;;;;;2.47;0.60;;;31.30;31.70;;;;;;4926418;28;20399;-72
2022/06/22 11:41:21;;;;;;;0.70;0.55;;;30.90;32.20;;;;;;4917310;29;20757;-72
2022/06/22 11:44:14;;;;;;;1.13;0.35;;;30.60;30.90;;;;;;4913697;29;20036;-73
2022/06/22 11:46:41;;;;;;;1.88;0.40;;;30.30;32.90;;;;;;4908626;29;20040;-74
2022/06/22 11:49:35;;;;;;;2.25;0.63;;;30.10;31.90;;;;;;4918415;29;20416;-72
2022/06/22 11:52:35;;;;;;;0.88;0.57;;;29.70;35.50;;;;;;4914125;29;20159;-74
2022/06/22 11:55:17;;;;;;;1.80;0.67;;;29.50;36.40;;;;;;4864156;29;20087;-73
2022/06/22 11:58:01;;;;;;;1.95;0.73;;;29.60;36.00;;;;;;4913102;29;20051;-74
2022/06/22 12:00:52;;;;;;;1.73;0.77;;;29.40;32.50;;;;;;4915837;29;20036;-74
2022/06/22 12:03:28;;;;;;;0.70;0.65;;;29.20;38.80;;;;;;4912657;29;20091;-73
2022/06/22 12:06:00;;;;;;;2.70;0.73;;;29.10;38.30;;;;;;4905842;29;20082;-74
2022/06/22 12:08:50;;;;;;;0.80;0.60;;;29.10;31.80;;;;;;4911007;29;20034;-73
2022/06/22 12:11:48;;;;;;;1.17;0.80;;;28.70;33.30;;;;;;4902060;29;20054;-73
2022/06/22 12:17:36;;;;;;;1.90;0.80;;;28.30;41.40;;;;;;4898531;29;20059;-73
2022/06/22 12:20:13;;;;;;;;;;;28.70;40.20;;;;;;4911554;29;20042;-74
2022/06/22 12:22:45;;;;;;;1.33;0.93;;;28.90;36.80;;;;;;4910341;29;20490;-73
2022/06/22 12:25:37;;;;;;;1.27;0.65;;;29.00;40.10;;;;;;4904880;29;20166;-73
2022/06/22 12:28:24;;;;;;;1.77;0.80;;;29.20;36.80;;;;;;4903735;29;20090;-74
2022/06/22 12:31:12;;;;;;;1.75;0.90;;;29.10;41.90;;;;;;4911471;29;20107;-74
2022/06/22 12:33:43;;;;;;;1.80;0.68;;;29.00;44.00;;;;;;4910784;29;20086;-73
2022/06/22 12:36:20;;;;;;;1.52;0.68;;;29.30;37.70;;;;;;4912326;29;20148;-74
2022/06/22 12:38:51;;;;;;;2.38;0.88;;;28.90;39.80;;;;;;4913411;29;20039;-73
2022/06/22 12:41:44;;;;;;;1.10;0.80;;;28.90;43.30;;;;;;4905379;29;20032;-74
2022/06/22 12:44:37;;;;;;;1.30;0.95;;;29.10;41.00;;;;;;4909978;29;20039;-74
2022/06/22 12:47:40;;;;;;;1.63;0.60;;;29.00;43.80;;;;;;4906062;29;20044;-74
2022/06/22 12:50:32;;;;;;;1.95;0.50;;;28.70;35.30;;;;;;4911772;29;20035;-73
2022/06/22 12:53:50;;;;;;;0.98;0.60;;;28.70;42.00;;;;;;4890759;29;20094;-74
2022/06/22 12:56:27;;;;;;;1.50;0.90;;;28.80;42.20;;;;;;4881444;29;20054;-74
2022/06/22 12:58:53;;;;;;;2.45;0.80;;;28.80;39.50;;;;;;4916570;29;20509;-74
2022/06/22 13:01:19;;;;;;;1.85;0.75;;;28.60;43.70;;;;;;4913088;29;20023;-75
2022/06/22 13:03:53;;;;;;;1.42;0.75;;;28.30;39.00;;;;;;4913131;29;20059;-74
2022/06/22 13:06:21;;;;;;;2.60;0.98;;;28.20;41.00;;;;;;4914546;29;20496;-73
2022/06/22 13:08:47;;;;;;;0.80;0.73;;;28.30;40.80;;;;;;4915736;29;20039;-73
2022/06/22 13:11:19;;;;;;;2.58;0.73;;;28.20;41.90;;;;;;4570775;28;9999961;-73
2022/06/22 13:14:06;;;;;;;1.65;0.65;;;28.30;41.50;;;;;;4916795;29;20125;-74
2022/06/22 13:16:38;;;;;;;0.60;0.50;;;28.20;42.00;;;;;;4906703;29;20060;-73
2022/06/22 13:19:28;;;;;;;2.55;0.73;;;27.90;40.00;;;;;;4912371;29;20043;-74
2022/06/22 13:21:57;;;;;;;1.27;0.55;;;27.70;39.00;;;;;;4909321;29;20031;-72
2022/06/22 13:24:35;;;;;;;1.00;0.52;;;27.70;40.10;;;;;;4913528;29;20099;-72
2022/06/22 13:27:13;;;;;;;2.05;0.70;;;27.70;40.60;;;;;;4911307;29;20731;-71
2022/06/22 13:30:08;;;;;;;2.17;0.70;;;27.60;37.60;;;;;;4918523;29;20035;-72
2022/06/22 13:32:36;;;;;;;2.25;0.88;;;27.60;42.80;;;;;;4919406;29;20046;-72
2022/06/22 13:35:08;;;;;;;2.40;0.70;;;27.40;40.80;;;;;;4914808;29;21356;-71
2022/06/22 13:37:47;;;;;;;1.33;0.85;;;27.50;41.10;;;;;;4915277;29;20078;-71
2022/06/22 13:40:33;;;;;;;1.58;0.60;;;27.40;41.20;;;;;;4915129;29;20116;-71
2022/06/22 13:43:53;;;;;;;2.30;0.63;;;27.40;40.50;;;;;;4916868;29;20052;-72
2022/06/22 13:46:31;;;;;;;2.85;0.75;;;27.30;41.70;;;;;;4900489;29;20079;-71
2022/06/22 13:49:11;;;;;;;3.75;1.00;;;27.30;41.70;;;;;;4911311;29;20054;-72
2022/06/22 13:52:14;;;;;;;1.67;1.05;;;27.30;43.50;;;;;;4911888;29;20179;-71
2022/06/22 13:54:53;;;;;;;1.85;0.88;;;27.50;48.20;;;;;;4907176;29;20032;-71
2022/06/22 13:57:24;;;;;;;0.60;0.60;;;27.40;42.00;;;;;;4912189;29;20032;-71
2022/06/22 14:00:38;;;;;;;1.23;0.43;;;27.40;39.40;;;;;;4916474;29;20048;-72
2022/06/22 14:03:26;;;;;;;1.23;0.98;;;27.40;43.30;;;;;;4908132;29;20047;-71